createdAt,value
2022-10-05T00:02:26.465Z,8.43
2022-10-05T00:04:53.990Z,6.78
2022-10-05T00:07:20.941Z,9.90
2022-10-05T00:09:57.715Z,8.47
2022-10-05T00:12:24.818Z,7.87
2022-10-05T00:14:53.503Z,6.72
2022-10-05T00:17:21.838Z,9.85
2022-10-05T00:19:52.129Z,7.37
2022-10-05T00:22:20.490Z,7.93
2022-10-05T00:24:48.686Z,8.00
2022-10-05T00:27:18.282Z,9.15
2022-10-05T00:29:45.421Z,7.93
2022-10-05T00:32:12.029Z,9.07
2022-10-05T00:34:38.642Z,10.48
2022-10-05T00:37:05.751Z,11.35
2022-10-05T00:39:32.984Z,8.60
2022-10-05T00:42:33.551Z,7.45
2022-10-05T00:45:10.699Z,9.23
2022-10-05T00:47:55.574Z,10.82
2022-10-05T00:50:29.374Z,11.00
2022-10-05T00:53:14.121Z,11.05
2022-10-05T00:55:52.778Z,6.70
2022-10-05T00:58:25.348Z,9.93
2022-10-05T01:01:12.027Z,6.60
2022-10-05T01:03:46.438Z,8.18
2022-10-05T01:06:31.646Z,8.50
2022-10-05T01:09:13.379Z,6.78
2022-10-05T01:11:58.775Z,9.50
2022-10-05T01:14:30.226Z,7.22
2022-10-05T01:17:01.993Z,8.27
2022-10-05T01:19:54.285Z,6.68
2022-10-05T01:22:44.311Z,9.45
2022-10-05T01:25:35.410Z,7.12
2022-10-05T01:28:14.077Z,8.32
2022-10-05T01:30:52.649Z,8.38
2022-10-05T01:36:07.030Z,6.97
2022-10-05T01:38:42.789Z,9.43
2022-10-05T01:41:15.245Z,8.15
2022-10-05T01:44:03.296Z,8.15
2022-10-05T01:46:46.033Z,8.15
2022-10-05T01:49:31.636Z,8.25
2022-10-05T01:52:20.235Z,10.88
2022-10-05T01:55:01.624Z,8.65
2022-10-05T01:57:57.244Z,7.72
2022-10-05T02:00:23.784Z,8.27
2022-10-05T02:02:59.842Z,6.68
2022-10-05T02:05:33.458Z,11.85
2022-10-05T02:08:34.983Z,8.10
2022-10-05T02:11:04.253Z,7.65
2022-10-05T02:13:39.959Z,8.38
2022-10-05T02:16:15.581Z,7.68
2022-10-05T02:18:47.188Z,8.38
2022-10-05T02:21:13.791Z,7.30
2022-10-05T02:23:41.077Z,8.80
2022-10-05T02:26:08.921Z,9.68
2022-10-05T02:31:15.226Z,6.28
2022-10-05T02:33:41.797Z,10.25
2022-10-05T02:36:13.545Z,9.60
2022-10-05T02:39:08.226Z,8.75
2022-10-05T02:42:22.302Z,9.82
2022-10-05T02:45:11.179Z,7.30
2022-10-05T02:48:28.491Z,9.45
2022-10-05T02:51:25.666Z,9.85
2022-10-05T02:53:56.558Z,10.82
2022-10-05T02:56:23.599Z,9.60
2022-10-05T02:58:57.268Z,8.48
2022-10-05T03:01:27.892Z,8.38
2022-10-05T03:04:35.949Z,8.88
2022-10-05T03:07:09.504Z,8.88
2022-10-05T03:09:40.037Z,9.77
2022-10-05T03:12:15.284Z,8.15
2022-10-05T03:14:48.721Z,9.32
2022-10-05T03:17:22.441Z,7.62
2022-10-05T03:20:09.978Z,11.30
2022-10-05T03:22:47.699Z,11.52
2022-10-05T03:25:36.192Z,10.23
2022-10-05T03:28:11.871Z,9.50
2022-10-05T03:30:53.084Z,9.88
2022-10-05T03:33:35.151Z,11.90
2022-10-05T03:36:04.353Z,10.60
2022-10-05T03:38:55.544Z,14.20
2022-10-05T03:41:31.348Z,11.02
2022-10-05T03:44:09.773Z,10.65
2022-10-05T03:49:38.643Z,11.85
2022-10-05T03:52:12.401Z,10.05
2022-10-05T03:54:41.371Z,12.65
2022-10-05T03:57:11.250Z,9.73
2022-10-05T03:59:54.603Z,9.02
2022-10-05T04:02:24.800Z,10.77
2022-10-05T04:05:03.406Z,11.15
2022-10-05T04:07:50.483Z,10.88
2022-10-05T04:10:38.179Z,10.43
2022-10-05T04:13:16.425Z,8.80
2022-10-05T04:15:58.850Z,10.27
2022-10-05T04:18:49.663Z,11.52
2022-10-05T04:22:11.837Z,10.95
2022-10-05T04:24:49.834Z,9.38
2022-10-05T04:27:22.562Z,12.98
2022-10-05T04:30:08.064Z,13.55
2022-10-05T04:32:44.709Z,9.40
2022-10-05T04:35:40.880Z,12.10
2022-10-05T04:38:10.519Z,10.15
2022-10-05T04:41:07.799Z,10.75
2022-10-05T04:43:59.256Z,10.45
2022-10-05T04:46:43.943Z,12.68
2022-10-05T04:49:44.544Z,10.88
2022-10-05T04:52:24.941Z,8.25
2022-10-05T04:55:07.823Z,13.00
2022-10-05T04:58:06.212Z,10.60
2022-10-05T05:00:54.254Z,12.15
2022-10-05T05:03:50.095Z,14.02
2022-10-05T05:06:31.834Z,10.48
2022-10-05T05:09:25.323Z,12.02
2022-10-05T05:12:19.521Z,13.98
2022-10-05T05:15:11.937Z,11.02
2022-10-05T05:18:15.880Z,10.98
2022-10-05T05:20:53.515Z,13.57
2022-10-05T05:23:28.927Z,15.13
2022-10-05T05:26:13.522Z,18.98
2022-10-05T05:28:46.974Z,10.98
2022-10-05T05:31:17.389Z,9.88
2022-10-05T05:34:05.432Z,16.27
2022-10-05T05:36:49.967Z,14.15
2022-10-05T05:39:30.060Z,14.57
2022-10-05T05:42:18.089Z,9.55
2022-10-05T05:45:17.904Z,14.38
2022-10-05T05:48:17.998Z,11.52
2022-10-05T05:51:03.259Z,14.15
2022-10-05T05:53:33.101Z,12.13
2022-10-05T05:56:12.776Z,9.52
2022-10-05T05:58:56.756Z,11.25
2022-10-05T06:01:34.016Z,10.10
2022-10-05T06:04:25.633Z,14.20
2022-10-05T06:06:53.073Z,11.80
2022-10-05T06:09:23.916Z,11.38
2022-10-05T06:11:54.664Z,11.75
2022-10-05T06:14:34.173Z,12.98
2022-10-05T06:17:01.572Z,10.65
2022-10-05T06:19:28.271Z,11.98
2022-10-05T06:22:18.221Z,12.60
2022-10-05T06:24:44.628Z,11.73
2022-10-05T06:27:36.883Z,12.65
2022-10-05T06:30:21.391Z,9.57
2022-10-05T06:32:50.932Z,11.30
2022-10-05T06:35:42.242Z,12.85
2022-10-05T06:38:35.078Z,12.60
2022-10-05T06:41:08.070Z,12.15
2022-10-05T06:43:48.440Z,12.02
2022-10-05T06:46:53.499Z,17.45
2022-10-05T06:49:43.888Z,14.43
2022-10-05T06:52:13.130Z,15.27
2022-10-05T06:54:46.139Z,15.85
2022-10-05T06:57:27.716Z,13.57
2022-10-05T07:00:02.104Z,14.05
2022-10-05T07:02:42.364Z,11.40
2022-10-05T07:05:29.970Z,7.57
2022-10-05T07:08:25.415Z,10.82
2022-10-05T07:11:00.559Z,12.43
2022-10-05T07:13:42.022Z,10.20
2022-10-05T07:16:26.749Z,8.30
2022-10-05T07:19:02.885Z,8.70
2022-10-05T07:21:45.845Z,9.05
2022-10-05T07:24:32.231Z,12.43
2022-10-05T07:27:13.625Z,12.60
2022-10-05T07:30:03.458Z,12.43
2022-10-05T07:33:00.090Z,9.20
2022-10-05T07:36:08.292Z,10.82
2022-10-05T07:38:43.161Z,12.95
2022-10-05T07:41:17.039Z,10.40
2022-10-05T07:44:02.994Z,13.43
2022-10-05T07:46:44.676Z,10.98
2022-10-05T07:49:31.606Z,15.10
2022-10-05T07:52:13.009Z,10.20
2022-10-05T07:54:53.009Z,10.20
2022-10-05T07:57:56.527Z,10.27
2022-10-05T08:00:24.541Z,14.10
2022-10-05T08:02:53.937Z,17.80
2022-10-05T08:05:20.434Z,10.93
2022-10-05T08:07:47.024Z,20.52
2022-10-05T08:10:33.958Z,18.27
2022-10-05T08:13:27.516Z,14.20
2022-10-05T08:15:57.099Z,15.80
2022-10-05T08:18:39.941Z,12.70
2022-10-05T08:21:11.819Z,18.70
2022-10-05T08:23:49.719Z,22.08
2022-10-05T08:26:43.662Z,14.50
2022-10-05T08:29:25.541Z,19.05
2022-10-05T08:31:53.925Z,15.90
2022-10-05T08:34:36.487Z,21.08
2022-10-05T08:37:25.195Z,23.08
2022-10-05T08:42:30.270Z,21.50
2022-10-05T08:45:22.772Z,19.48
2022-10-05T08:48:26.460Z,18.55
2022-10-05T08:51:21.208Z,21.50
2022-10-05T08:54:06.499Z,18.75
2022-10-05T08:56:41.118Z,18.98
2022-10-05T08:59:10.900Z,25.85
2022-10-05T09:02:03.086Z,21.87
2022-10-05T09:05:06.404Z,25.55
2022-10-05T09:08:10.523Z,13.80
2022-10-05T09:10:55.413Z,16.70
2022-10-05T09:13:45.264Z,12.30
2022-10-05T09:16:45.602Z,15.43
2022-10-05T09:19:49.014Z,14.80
2022-10-05T09:22:30.414Z,12.68
2022-10-05T09:24:58.174Z,18.35
2022-10-05T09:27:30.807Z,22.30
2022-10-05T09:30:18.161Z,14.02
2022-10-05T09:33:25.909Z,12.95
2022-10-05T09:36:11.160Z,17.27
2022-10-05T09:39:11.572Z,11.93
2022-10-05T09:41:55.846Z,11.98
2022-10-05T09:44:40.775Z,12.95
2022-10-05T09:47:41.558Z,11.40
2022-10-05T09:50:38.408Z,11.05
2022-10-05T09:53:40.568Z,14.13
2022-10-05T09:56:22.249Z,12.90
2022-10-05T09:59:09.278Z,10.48
2022-10-05T10:01:43.860Z,14.27
2022-10-05T10:05:04.789Z,13.05
2022-10-05T10:08:05.588Z,12.10
2022-10-05T10:10:38.954Z,15.55
2022-10-05T10:13:44.678Z,10.70
2022-10-05T10:16:13.129Z,14.77
2022-10-05T10:18:51.708Z,12.63
2022-10-05T10:21:43.510Z,12.95
2022-10-05T10:24:15.852Z,10.77
2022-10-05T10:27:08.684Z,11.50
2022-10-05T10:29:41.226Z,10.25
2022-10-05T10:32:16.309Z,12.60
2022-10-05T10:35:00.998Z,11.23
2022-10-05T10:37:35.354Z,9.55
2022-10-05T10:40:29.612Z,13.60
2022-10-05T10:42:56.355Z,9.65
2022-10-05T10:45:42.769Z,11.67
2022-10-05T10:48:11.410Z,14.38
2022-10-05T10:50:51.822Z,10.30
2022-10-05T10:54:12.682Z,11.68
2022-10-05T10:59:45.848Z,10.82
2022-10-05T11:02:37.458Z,9.57
2022-10-05T11:05:25.776Z,12.73
2022-10-05T11:08:01.692Z,13.40
2022-10-05T11:10:46.767Z,13.77
2022-10-05T11:13:25.563Z,14.32
2022-10-05T11:18:57.427Z,9.40
2022-10-05T11:21:36.745Z,12.95
2022-10-05T11:24:21.901Z,11.05
2022-10-05T11:27:03.502Z,13.90
2022-10-05T11:29:49.172Z,12.95
2022-10-05T11:32:34.060Z,14.95
2022-10-05T11:35:24.523Z,15.32
2022-10-05T11:38:21.025Z,12.93
2022-10-05T11:41:19.781Z,13.55
2022-10-05T11:44:03.256Z,13.80
2022-10-05T11:46:44.572Z,18.02
2022-10-05T11:49:11.092Z,16.05
2022-10-05T11:51:59.473Z,16.65
2022-10-05T11:55:06.040Z,15.07
2022-10-05T11:57:52.613Z,12.75
2022-10-05T12:00:40.576Z,16.17
2022-10-05T12:03:51.823Z,11.93
2022-10-05T12:06:41.313Z,14.68
2022-10-05T12:10:06.985Z,11.12
2022-10-05T12:12:39.602Z,15.80
2022-10-05T12:15:43.940Z,11.55
2022-10-05T12:18:39.241Z,15.50
2022-10-05T12:21:09.548Z,15.82
2022-10-05T12:24:00.613Z,18.00
2022-10-05T12:26:34.093Z,15.57
2022-10-05T12:29:07.685Z,11.12
2022-10-05T12:31:36.053Z,12.25
2022-10-05T12:34:11.289Z,19.30
2022-10-05T12:37:04.172Z,13.40
2022-10-05T12:39:50.013Z,13.82
2022-10-05T12:42:31.283Z,18.73
2022-10-05T12:45:14.720Z,14.38
2022-10-05T12:47:54.001Z,8.43
2022-10-05T12:50:27.306Z,15.18
2022-10-05T12:53:06.323Z,13.02
2022-10-05T12:56:10.373Z,12.65
2022-10-05T12:58:54.378Z,10.00
2022-10-05T13:01:20.775Z,10.30
2022-10-05T13:03:55.456Z,8.73
2022-10-05T13:06:24.831Z,13.27
2022-10-05T13:08:54.321Z,9.70
2022-10-05T13:11:35.164Z,7.53
2022-10-05T13:14:23.117Z,7.18
2022-10-05T13:17:19.145Z,9.00
2022-10-05T13:19:54.707Z,7.72
2022-10-05T13:22:26.950Z,6.72
2022-10-05T13:25:17.326Z,6.55
2022-10-05T13:28:03.477Z,6.03
2022-10-05T13:30:30.042Z,8.65
2022-10-05T13:32:58.919Z,9.63
2022-10-05T13:35:47.171Z,9.65
2022-10-05T13:38:16.848Z,6.40
2022-10-05T13:40:52.731Z,7.60
2022-10-05T13:43:44.093Z,10.55
2022-10-05T13:46:17.071Z,6.80
2022-10-05T13:48:59.160Z,11.30
2022-10-05T13:51:48.867Z,7.10
2022-10-05T13:54:45.880Z,8.63
2022-10-05T13:57:31.177Z,7.85
2022-10-05T13:59:58.557Z,6.65
2022-10-05T14:02:35.784Z,8.00
2022-10-05T14:05:14.641Z,7.67
2022-10-05T14:07:55.667Z,8.77
2022-10-05T14:10:36.585Z,8.27
2022-10-05T14:13:20.468Z,10.05
2022-10-05T14:16:04.383Z,23.87
2022-10-05T14:18:32.879Z,15.57
2022-10-05T14:21:08.406Z,10.25
2022-10-05T14:23:35.081Z,7.90
2022-10-05T14:26:04.491Z,8.93
2022-10-05T14:28:32.963Z,16.48
2022-10-05T14:31:11.910Z,10.90
2022-10-05T14:33:38.721Z,7.45
2022-10-05T14:36:08.810Z,8.33
2022-10-05T14:39:02.110Z,9.50
2022-10-05T14:41:28.817Z,10.13
2022-10-05T14:44:04.485Z,10.47
2022-10-05T14:46:34.760Z,10.13
2022-10-05T14:49:23.062Z,13.30
2022-10-05T14:51:50.505Z,7.03
2022-10-05T14:54:49.510Z,5.37
2022-10-05T14:57:32.138Z,7.60
2022-10-05T15:00:03.959Z,6.50
2022-10-05T15:02:47.903Z,8.20
2022-10-05T15:05:33.600Z,7.68
2022-10-05T15:08:17.730Z,8.00
2022-10-05T15:10:59.283Z,7.03
2022-10-05T15:13:29.358Z,13.75
2022-10-05T15:16:01.168Z,7.62
2022-10-05T15:18:51.784Z,10.82
2022-10-05T15:21:27.617Z,7.90
2022-10-05T15:23:55.233Z,11.75
2022-10-05T15:29:00.016Z,5.80
2022-10-05T15:31:51.432Z,7.50
2022-10-05T15:34:37.647Z,7.45
2022-10-05T15:37:25.781Z,5.25
2022-10-05T15:39:54.913Z,6.93
2022-10-05T15:42:43.548Z,5.95
2022-10-05T15:45:23.559Z,6.62
2022-10-05T15:48:21.375Z,7.90
2022-10-05T15:50:57.003Z,11.00
2022-10-05T15:53:33.315Z,10.15
2022-10-05T15:56:21.838Z,7.90
2022-10-05T15:58:55.482Z,5.97
2022-10-05T16:01:48.173Z,9.68
2022-10-05T16:04:16.850Z,7.20
2022-10-05T16:07:08.758Z,6.80
2022-10-05T16:09:59.682Z,12.05
2022-10-05T16:12:32.412Z,14.80
2022-10-05T16:15:16.217Z,10.48
2022-10-05T16:17:58.023Z,8.55
2022-10-05T16:20:46.403Z,13.02
2022-10-05T16:23:34.967Z,13.77
2022-10-05T16:26:19.667Z,11.68
2022-10-05T16:28:50.380Z,13.55
2022-10-05T16:31:30.990Z,11.35
2022-10-05T16:34:06.676Z,9.00
2022-10-05T16:36:59.489Z,9.27
2022-10-05T16:39:50.349Z,12.40
2022-10-05T16:42:48.094Z,9.68
2022-10-05T16:45:27.605Z,10.98
2022-10-05T16:48:20.780Z,12.95
2022-10-05T16:51:02.996Z,9.95
2022-10-05T16:53:36.991Z,31.80
2022-10-05T16:56:06.431Z,16.10
2022-10-05T16:59:04.251Z,10.45
2022-10-05T17:01:42.362Z,12.45
2022-10-05T17:06:58.441Z,11.60
2022-10-05T17:09:45.528Z,14.30
2022-10-05T17:12:22.335Z,9.90
2022-10-05T17:15:13.700Z,13.70
2022-10-05T17:18:09.718Z,10.80
2022-10-05T17:20:42.824Z,10.15
2022-10-05T17:23:31.353Z,12.68
2022-10-05T17:26:06.132Z,14.10
2022-10-05T17:28:39.773Z,14.98
2022-10-05T17:31:13.241Z,11.25
2022-10-05T17:34:01.447Z,19.98
2022-10-05T17:36:51.228Z,12.70
2022-10-05T17:39:21.497Z,14.68
2022-10-05T17:41:48.155Z,16.42
2022-10-05T17:44:24.464Z,11.00
2022-10-05T17:46:56.089Z,12.05
2022-10-05T17:49:34.274Z,14.00
2022-10-05T17:52:20.865Z,12.48
2022-10-05T17:55:06.148Z,13.20
2022-10-05T17:57:34.003Z,13.65
2022-10-05T18:00:02.096Z,15.88
2022-10-05T18:02:36.341Z,16.17
2022-10-05T18:05:04.052Z,14.68
2022-10-05T18:07:31.515Z,13.50
2022-10-05T18:10:28.971Z,15.25
2022-10-05T18:12:58.623Z,16.48
2022-10-05T18:15:25.049Z,12.70
2022-10-05T18:17:54.988Z,11.00
2022-10-05T18:20:24.328Z,12.88
2022-10-05T18:22:53.086Z,11.15
2022-10-05T18:25:53.583Z,12.50
2022-10-05T18:28:40.826Z,16.40
2022-10-05T18:31:23.552Z,12.70
2022-10-05T18:34:30.215Z,11.07
2022-10-05T18:37:25.620Z,12.60
2022-10-05T18:40:11.891Z,15.77
2022-10-05T18:42:39.941Z,16.02
2022-10-05T18:45:06.348Z,11.75
2022-10-05T18:47:42.958Z,13.20
2022-10-05T18:50:29.789Z,15.75
2022-10-05T18:53:14.393Z,17.12
2022-10-05T18:56:33.612Z,13.77
2022-10-05T18:59:24.134Z,16.92
2022-10-05T19:02:11.074Z,13.48
2022-10-05T19:04:47.302Z,15.70
2022-10-05T19:07:29.814Z,14.07
2022-10-05T19:10:11.495Z,14.65
2022-10-05T19:12:53.693Z,12.02
2022-10-05T19:15:44.774Z,11.57
2022-10-05T19:18:32.157Z,11.45
2022-10-05T19:21:08.230Z,13.90
2022-10-05T19:24:04.426Z,15.50
2022-10-05T19:26:49.975Z,13.40
2022-10-05T19:29:27.039Z,13.55
2022-10-05T19:31:55.414Z,13.38
2022-10-05T19:34:56.604Z,13.93
2022-10-05T19:37:49.513Z,14.55
2022-10-05T19:40:24.386Z,12.70
2022-10-05T19:42:59.490Z,12.05
2022-10-05T19:45:27.003Z,14.48
2022-10-05T19:48:20.898Z,19.17
2022-10-05T19:50:54.407Z,12.57
2022-10-05T19:53:29.596Z,11.18
2022-10-05T19:55:56.185Z,12.18
2022-10-05T19:58:24.362Z,13.48
2022-10-05T20:01:07.000Z,18.92
2022-10-05T20:03:35.315Z,14.52
2022-10-05T20:06:03.274Z,17.70
2022-10-05T20:08:43.997Z,16.50
2022-10-05T20:11:15.640Z,12.43
2022-10-05T20:13:44.780Z,15.98
2022-10-05T20:16:36.038Z,11.85
2022-10-05T20:19:23.380Z,14.65
2022-10-05T20:21:52.152Z,12.50
2022-10-05T20:24:22.455Z,13.27
2022-10-05T20:27:15.130Z,16.50
2022-10-05T20:29:43.168Z,14.65
2022-10-05T20:32:14.349Z,10.27
2022-10-05T20:34:42.051Z,15.32
2022-10-05T20:39:35.470Z,14.25
2022-10-05T20:42:02.014Z,15.13
2022-10-05T20:44:28.661Z,13.68
2022-10-05T20:46:58.259Z,15.23
2022-10-05T20:49:28.517Z,14.40
2022-10-05T20:51:55.911Z,16.58
2022-10-05T20:54:23.312Z,13.48
2022-10-05T20:56:50.168Z,13.40
2022-10-05T20:59:17.040Z,15.77
2022-10-05T21:01:48.051Z,15.97
2022-10-05T21:04:18.941Z,13.95
2022-10-05T21:06:45.641Z,18.40
2022-10-05T21:09:14.774Z,15.57
2022-10-05T21:11:44.514Z,17.80
2022-10-05T21:14:11.363Z,17.02
2022-10-05T21:16:40.865Z,18.13
2022-10-05T21:19:09.463Z,16.67
2022-10-05T21:21:36.565Z,16.40
2022-10-05T21:24:03.148Z,15.82
2022-10-05T21:26:29.961Z,12.98
2022-10-05T21:28:57.539Z,16.23
2022-10-05T21:31:25.025Z,14.77
2022-10-05T21:33:51.629Z,16.45
2022-10-05T21:36:22.403Z,16.00
2022-10-05T21:38:51.738Z,17.85
2022-10-05T21:41:18.488Z,20.75
2022-10-05T21:43:45.093Z,19.30
2022-10-05T21:46:12.747Z,17.27
2022-10-05T21:51:06.644Z,14.98
2022-10-05T21:53:35.253Z,18.62
2022-10-05T21:56:03.109Z,19.10
2022-10-05T21:58:30.221Z,18.70
2022-10-05T22:00:57.098Z,17.87
2022-10-05T22:03:23.778Z,20.42
2022-10-05T22:05:50.513Z,20.85
2022-10-05T22:08:26.462Z,21.35
2022-10-05T22:10:54.754Z,21.87
2022-10-05T22:13:26.078Z,19.55
2022-10-05T22:15:55.569Z,22.62
2022-10-05T22:18:23.511Z,18.48
2022-10-05T22:20:50.421Z,18.85
2022-10-05T22:23:16.997Z,18.53
2022-10-05T22:25:43.572Z,18.67
2022-10-05T22:28:11.690Z,19.00
2022-10-05T22:30:38.244Z,18.98
2022-10-05T22:33:04.778Z,17.00
2022-10-05T22:35:35.873Z,16.17
2022-10-05T22:38:03.123Z,19.08
2022-10-05T22:40:29.667Z,16.12
2022-10-05T22:42:56.266Z,16.20
2022-10-05T22:45:22.935Z,16.05
2022-10-05T22:47:49.480Z,16.55
2022-10-05T22:50:16.175Z,15.75
2022-10-05T22:52:44.947Z,14.48
2022-10-05T22:55:11.492Z,20.67
2022-10-05T22:57:41.273Z,15.65
2022-10-05T23:00:08.680Z,18.48
2022-10-05T23:02:39.152Z,13.55
2022-10-05T23:05:05.952Z,19.98
2022-10-05T23:07:39.569Z,16.83
2022-10-05T23:10:06.615Z,16.48
2022-10-05T23:12:34.325Z,19.37
2022-10-05T23:17:28.056Z,17.15
2022-10-05T23:19:54.606Z,18.20
2022-10-05T23:22:21.579Z,16.23
2022-10-05T23:24:48.098Z,16.27
2022-10-05T23:27:14.631Z,14.85
2022-10-05T23:29:41.157Z,15.45
2022-10-05T23:32:08.186Z,16.80
2022-10-05T23:34:34.858Z,13.20
2022-10-05T23:37:01.370Z,16.48
2022-10-05T23:39:27.931Z,16.95
2022-10-05T23:41:54.458Z,17.33
2022-10-05T23:44:21.299Z,13.48
2022-10-05T23:46:47.836Z,18.00
2022-10-05T23:49:14.824Z,13.85
2022-10-05T23:51:41.393Z,13.55
2022-10-05T23:54:07.971Z,15.20
2022-10-05T23:56:34.540Z,15.65
2022-10-05T23:59:01.060Z,13.18
